sensor_id;sensor_type;location;lat;lon;timestamp;P1;durP1;ratioP1;P2;durP2;ratioP2
35877;SDS011;21982;49.804;24.072;2023-07-20T00:00:29;12.13;;;5.00;;
35877;SDS011;21982;49.804;24.072;2023-07-20T00:03:09;8.45;;;4.70;;
35877;SDS011;21982;49.804;24.072;2023-07-20T00:05:41;9.60;;;4.65;;
35877;SDS011;21982;49.804;24.072;2023-07-20T00:08:10;9.85;;;5.00;;
35877;SDS011;21982;49.804;24.072;2023-07-20T00:10:35;9.57;;;4.22;;
35877;SDS011;21982;49.804;24.072;2023-07-20T00:13:01;8.45;;;3.90;;
35877;SDS011;21982;49.804;24.072;2023-07-20T00:15:26;7.00;;;3.78;;
35877;SDS011;21982;49.804;24.072;2023-07-20T00:17:51;7.72;;;4.22;;
35877;SDS011;21982;49.804;24.072;2023-07-20T00:20:17;7.28;;;4.50;;
35877;SDS011;21982;49.804;24.072;2023-07-20T00:22:42;14.27;;;5.25;;
35877;SDS011;21982;49.804;24.072;2023-07-20T00:25:08;5.47;;;3.50;;
35877;SDS011;21982;49.804;24.072;2023-07-20T00:27:35;9.32;;;4.10;;
35877;SDS011;21982;49.804;24.072;2023-07-20T00:30:00;7.45;;;3.97;;
35877;SDS011;21982;49.804;24.072;2023-07-20T00:32:25;9.70;;;4.50;;
35877;SDS011;21982;49.804;24.072;2023-07-20T00:34:51;7.72;;;4.65;;
35877;SDS011;21982;49.804;24.072;2023-07-20T00:37:16;6.95;;;4.72;;
35877;SDS011;21982;49.804;24.072;2023-07-20T00:39:43;9.93;;;4.05;;
35877;SDS011;21982;49.804;24.072;2023-07-20T00:42:08;9.82;;;4.20;;
35877;SDS011;21982;49.804;24.072;2023-07-20T00:44:33;10.38;;;4.80;;
35877;SDS011;21982;49.804;24.072;2023-07-20T00:46:59;12.82;;;5.25;;
35877;SDS011;21982;49.804;24.072;2023-07-20T00:49:25;9.88;;;5.00;;
35877;SDS011;21982;49.804;24.072;2023-07-20T00:51:50;8.70;;;5.00;;
35877;SDS011;21982;49.804;24.072;2023-07-20T00:54:16;9.20;;;4.60;;
35877;SDS011;21982;49.804;24.072;2023-07-20T00:56:42;11.60;;;4.82;;
35877;SDS011;21982;49.804;24.072;2023-07-20T00:59:08;10.25;;;4.40;;
35877;SDS011;21982;49.804;24.072;2023-07-20T01:01:34;10.65;;;5.40;;
35877;SDS011;21982;49.804;24.072;2023-07-20T01:04:00;13.35;;;5.95;;
35877;SDS011;21982;49.804;24.072;2023-07-20T01:12:05;12.88;;;5.30;;
35877;SDS011;21982;49.804;24.072;2023-07-20T01:14:35;15.07;;;7.13;;
35877;SDS011;21982;49.804;24.072;2023-07-20T01:17:01;9.70;;;5.35;;
35877;SDS011;21982;49.804;24.072;2023-07-20T01:19:27;9.70;;;4.65;;
35877;SDS011;21982;49.804;24.072;2023-07-20T01:32:54;10.35;;;5.15;;
35877;SDS011;21982;49.804;24.072;2023-07-20T01:35:22;8.68;;;5.57;;
35877;SDS011;21982;49.804;24.072;2023-07-20T01:37:55;9.68;;;4.88;;
35877;SDS011;21982;49.804;24.072;2023-07-20T01:40:23;9.73;;;4.80;;
35877;SDS011;21982;49.804;24.072;2023-07-20T01:42:50;10.85;;;5.57;;
35877;SDS011;21982;49.804;24.072;2023-07-20T01:45:18;9.43;;;4.93;;
35877;SDS011;21982;49.804;24.072;2023-07-20T01:47:44;8.32;;;4.47;;
35877;SDS011;21982;49.804;24.072;2023-07-20T01:50:10;10.20;;;5.20;;
35877;SDS011;21982;49.804;24.072;2023-07-20T01:52:35;10.20;;;4.47;;
35877;SDS011;21982;49.804;24.072;2023-07-20T01:55:01;9.65;;;5.45;;
35877;SDS011;21982;49.804;24.072;2023-07-20T01:57:26;7.25;;;4.22;;
35877;SDS011;21982;49.804;24.072;2023-07-20T01:59:52;10.05;;;4.60;;
35877;SDS011;21982;49.804;24.072;2023-07-20T02:02:17;8.15;;;4.43;;
35877;SDS011;21982;49.804;24.072;2023-07-20T02:04:43;7.40;;;4.10;;
35877;SDS011;21982;49.804;24.072;2023-07-20T02:07:09;10.93;;;4.78;;
35877;SDS011;21982;49.804;24.072;2023-07-20T02:09:35;9.05;;;4.75;;
35877;SDS011;21982;49.804;24.072;2023-07-20T02:12:00;10.73;;;5.57;;
35877;SDS011;21982;49.804;24.072;2023-07-20T02:14:25;8.60;;;4.65;;
35877;SDS011;21982;49.804;24.072;2023-07-20T02:16:51;8.88;;;4.50;;
35877;SDS011;21982;49.804;24.072;2023-07-20T02:19:17;9.52;;;5.18;;
35877;SDS011;21982;49.804;24.072;2023-07-20T02:21:43;9.55;;;5.30;;
35877;SDS011;21982;49.804;24.072;2023-07-20T02:24:08;8.55;;;4.93;;
35877;SDS011;21982;49.804;24.072;2023-07-20T02:26:34;13.88;;;5.55;;
35877;SDS011;21982;49.804;24.072;2023-07-20T02:29:00;10.73;;;4.50;;
35877;SDS011;21982;49.804;24.072;2023-07-20T02:31:25;7.70;;;5.00;;
35877;SDS011;21982;49.804;24.072;2023-07-20T02:33:51;8.90;;;4.97;;
35877;SDS011;21982;49.804;24.072;2023-07-20T02:36:16;13.32;;;5.75;;
35877;SDS011;21982;49.804;24.072;2023-07-20T02:38:42;8.80;;;3.83;;
35877;SDS011;21982;49.804;24.072;2023-07-20T02:41:07;10.40;;;4.93;;
35877;SDS011;21982;49.804;24.072;2023-07-20T02:43:33;8.82;;;4.43;;
35877;SDS011;21982;49.804;24.072;2023-07-20T02:45:58;8.10;;;4.30;;
35877;SDS011;21982;49.804;24.072;2023-07-20T02:48:24;11.15;;;5.15;;
35877;SDS011;21982;49.804;24.072;2023-07-20T02:50:50;10.02;;;4.68;;
35877;SDS011;21982;49.804;24.072;2023-07-20T02:53:15;9.52;;;4.72;;
35877;SDS011;21982;49.804;24.072;2023-07-20T02:55:41;7.82;;;4.53;;
35877;SDS011;21982;49.804;24.072;2023-07-20T02:58:06;9.85;;;4.50;;
35877;SDS011;21982;49.804;24.072;2023-07-20T03:00:32;9.82;;;4.55;;
35877;SDS011;21982;49.804;24.072;2023-07-20T03:02:57;10.88;;;4.13;;
35877;SDS011;21982;49.804;24.072;2023-07-20T03:05:23;11.35;;;4.20;;
35877;SDS011;21982;49.804;24.072;2023-07-20T03:07:52;9.63;;;4.45;;
35877;SDS011;21982;49.804;24.072;2023-07-20T03:10:17;8.43;;;4.57;;
35877;SDS011;21982;49.804;24.072;2023-07-20T03:12:43;8.43;;;4.72;;
35877;SDS011;21982;49.804;24.072;2023-07-20T03:15:08;9.93;;;5.35;;
35877;SDS011;21982;49.804;24.072;2023-07-20T03:17:34;11.75;;;4.90;;
35877;SDS011;21982;49.804;24.072;2023-07-20T03:20:00;12.13;;;4.57;;
35877;SDS011;21982;49.804;24.072;2023-07-20T03:22:25;11.63;;;5.03;;
35877;SDS011;21982;49.804;24.072;2023-07-20T03:24:51;9.80;;;5.15;;
35877;SDS011;21982;49.804;24.072;2023-07-20T03:27:17;8.77;;;4.80;;
35877;SDS011;21982;49.804;24.072;2023-07-20T03:29:43;10.75;;;5.65;;
35877;SDS011;21982;49.804;24.072;2023-07-20T03:32:09;9.15;;;5.13;;
35877;SDS011;21982;49.804;24.072;2023-07-20T03:34:35;10.38;;;4.65;;
35877;SDS011;21982;49.804;24.072;2023-07-20T03:37:01;8.90;;;5.38;;
35877;SDS011;21982;49.804;24.072;2023-07-20T03:39:29;9.32;;;4.65;;
35877;SDS011;21982;49.804;24.072;2023-07-20T03:41:55;10.23;;;4.85;;
35877;SDS011;21982;49.804;24.072;2023-07-20T03:44:20;8.23;;;4.00;;
35877;SDS011;21982;49.804;24.072;2023-07-20T03:46:46;10.68;;;5.53;;
35877;SDS011;21982;49.804;24.072;2023-07-20T03:49:12;11.48;;;5.13;;
35877;SDS011;21982;49.804;24.072;2023-07-20T03:51:38;10.57;;;5.75;;
35877;SDS011;21982;49.804;24.072;2023-07-20T03:54:03;9.93;;;5.88;;
35877;SDS011;21982;49.804;24.072;2023-07-20T03:56:29;9.40;;;5.70;;
35877;SDS011;21982;49.804;24.072;2023-07-20T03:58:59;11.40;;;5.13;;
35877;SDS011;21982;49.804;24.072;2023-07-20T04:01:25;12.82;;;6.25;;
35877;SDS011;21982;49.804;24.072;2023-07-20T04:03:50;9.25;;;4.93;;
35877;SDS011;21982;49.804;24.072;2023-07-20T04:06:16;11.93;;;5.82;;
35877;SDS011;21982;49.804;24.072;2023-07-20T04:08:42;12.48;;;6.30;;
35877;SDS011;21982;49.804;24.072;2023-07-20T04:11:08;9.60;;;5.25;;
35877;SDS011;21982;49.804;24.072;2023-07-20T04:13:33;11.25;;;5.28;;
35877;SDS011;21982;49.804;24.072;2023-07-20T04:15:59;10.15;;;6.07;;
35877;SDS011;21982;49.804;24.072;2023-07-20T04:18:25;12.65;;;6.72;;
35877;SDS011;21982;49.804;24.072;2023-07-20T04:20:50;12.30;;;6.00;;
35877;SDS011;21982;49.804;24.072;2023-07-20T04:23:16;9.60;;;5.18;;
35877;SDS011;21982;49.804;24.072;2023-07-20T04:25:42;8.48;;;4.93;;
35877;SDS011;21982;49.804;24.072;2023-07-20T04:28:07;11.35;;;5.05;;
35877;SDS011;21982;49.804;24.072;2023-07-20T04:30:34;7.63;;;4.65;;
35877;SDS011;21982;49.804;24.072;2023-07-20T04:33:01;9.82;;;4.95;;
35877;SDS011;21982;49.804;24.072;2023-07-20T04:38:13;9.43;;;5.03;;
35877;SDS011;21982;49.804;24.072;2023-07-20T04:40:40;8.60;;;5.28;;
35877;SDS011;21982;49.804;24.072;2023-07-20T04:43:06;7.97;;;4.28;;
35877;SDS011;21982;49.804;24.072;2023-07-20T04:45:32;7.38;;;3.35;;
35877;SDS011;21982;49.804;24.072;2023-07-20T04:47:57;7.07;;;3.67;;
35877;SDS011;21982;49.804;24.072;2023-07-20T04:50:22;7.90;;;3.78;;
35877;SDS011;21982;49.804;24.072;2023-07-20T04:52:50;7.57;;;3.60;;
35877;SDS011;21982;49.804;24.072;2023-07-20T04:55:15;7.03;;;3.95;;
35877;SDS011;21982;49.804;24.072;2023-07-20T04:57:41;10.15;;;4.13;;
35877;SDS011;21982;49.804;24.072;2023-07-20T05:00:07;9.00;;;3.92;;
35877;SDS011;21982;49.804;24.072;2023-07-20T05:02:35;10.93;;;4.10;;
35877;SDS011;21982;49.804;24.072;2023-07-20T05:05:00;8.00;;;4.03;;
35877;SDS011;21982;49.804;24.072;2023-07-20T05:07:26;10.60;;;3.88;;
35877;SDS011;21982;49.804;24.072;2023-07-20T05:09:52;9.23;;;4.00;;
35877;SDS011;21982;49.804;24.072;2023-07-20T05:12:17;8.00;;;4.35;;
35877;SDS011;21982;49.804;24.072;2023-07-20T05:14:42;8.20;;;3.97;;
35877;SDS011;21982;49.804;24.072;2023-07-20T05:17:08;8.45;;;4.35;;
35877;SDS011;21982;49.804;24.072;2023-07-20T05:19:34;9.82;;;4.43;;
35877;SDS011;21982;49.804;24.072;2023-07-20T05:21:59;10.75;;;4.43;;
35877;SDS011;21982;49.804;24.072;2023-07-20T05:24:25;7.28;;;4.00;;
35877;SDS011;21982;49.804;24.072;2023-07-20T05:26:50;10.82;;;4.03;;
35877;SDS011;21982;49.804;24.072;2023-07-20T05:29:16;10.65;;;4.22;;
35877;SDS011;21982;49.804;24.072;2023-07-20T05:31:41;6.82;;;3.58;;
35877;SDS011;21982;49.804;24.072;2023-07-20T05:34:06;9.45;;;3.70;;
35877;SDS011;21982;49.804;24.072;2023-07-20T05:36:32;7.95;;;4.20;;
35877;SDS011;21982;49.804;24.072;2023-07-20T05:38:57;10.00;;;4.32;;
35877;SDS011;21982;49.804;24.072;2023-07-20T05:41:23;9.02;;;3.42;;
35877;SDS011;21982;49.804;24.072;2023-07-20T05:43:50;9.02;;;3.92;;
35877;SDS011;21982;49.804;24.072;2023-07-20T05:46:16;7.30;;;3.20;;
35877;SDS011;21982;49.804;24.072;2023-07-20T05:48:42;8.38;;;3.47;;
35877;SDS011;21982;49.804;24.072;2023-07-20T05:51:07;5.15;;;3.08;;
35877;SDS011;21982;49.804;24.072;2023-07-20T05:53:33;13.55;;;4.88;;
35877;SDS011;21982;49.804;24.072;2023-07-20T05:55:58;6.70;;;2.85;;
35877;SDS011;21982;49.804;24.072;2023-07-20T05:58:23;8.00;;;3.35;;
35877;SDS011;21982;49.804;24.072;2023-07-20T06:00:49;6.20;;;3.30;;
35877;SDS011;21982;49.804;24.072;2023-07-20T06:03:16;4.97;;;3.15;;
35877;SDS011;21982;49.804;24.072;2023-07-20T06:05:42;7.03;;;3.58;;
35877;SDS011;21982;49.804;24.072;2023-07-20T06:08:08;6.80;;;2.90;;
35877;SDS011;21982;49.804;24.072;2023-07-20T06:10:33;8.95;;;3.45;;
35877;SDS011;21982;49.804;24.072;2023-07-20T06:13:00;7.55;;;3.20;;
35877;SDS011;21982;49.804;24.072;2023-07-20T06:15:26;6.57;;;3.38;;
35877;SDS011;21982;49.804;24.072;2023-07-20T06:17:54;4.95;;;2.78;;
35877;SDS011;21982;49.804;24.072;2023-07-20T06:20:21;5.47;;;2.80;;
35877;SDS011;21982;49.804;24.072;2023-07-20T06:22:47;9.10;;;2.95;;
35877;SDS011;21982;49.804;24.072;2023-07-20T06:25:12;6.25;;;3.55;;
35877;SDS011;21982;49.804;24.072;2023-07-20T06:27:38;7.60;;;3.20;;
35877;SDS011;21982;49.804;24.072;2023-07-20T06:30:04;5.60;;;2.78;;
35877;SDS011;21982;49.804;24.072;2023-07-20T06:32:29;11.27;;;3.05;;
35877;SDS011;21982;49.804;24.072;2023-07-20T06:34:55;5.70;;;2.90;;
35877;SDS011;21982;49.804;24.072;2023-07-20T06:37:20;9.00;;;3.33;;
35877;SDS011;21982;49.804;24.072;2023-07-20T06:39:47;6.95;;;3.15;;
35877;SDS011;21982;49.804;24.072;2023-07-20T06:42:13;5.40;;;2.80;;
35877;SDS011;21982;49.804;24.072;2023-07-20T06:44:39;11.32;;;3.85;;
35877;SDS011;21982;49.804;24.072;2023-07-20T06:47:04;5.65;;;2.58;;
35877;SDS011;21982;49.804;24.072;2023-07-20T06:49:29;9.25;;;3.78;;
35877;SDS011;21982;49.804;24.072;2023-07-20T06:51:56;7.57;;;3.65;;
35877;SDS011;21982;49.804;24.072;2023-07-20T06:54:22;6.45;;;3.47;;
35877;SDS011;21982;49.804;24.072;2023-07-20T06:56:47;6.32;;;3.78;;
35877;SDS011;21982;49.804;24.072;2023-07-20T06:59:13;7.18;;;3.40;;
35877;SDS011;21982;49.804;24.072;2023-07-20T07:01:38;6.97;;;3.38;;
35877;SDS011;21982;49.804;24.072;2023-07-20T07:04:04;9.07;;;3.28;;
35877;SDS011;21982;49.804;24.072;2023-07-20T07:06:30;7.55;;;3.67;;
35877;SDS011;21982;49.804;24.072;2023-07-20T07:09:08;6.55;;;2.97;;
35877;SDS011;21982;49.804;24.072;2023-07-20T07:11:33;10.55;;;3.05;;
35877;SDS011;21982;49.804;24.072;2023-07-20T07:13:59;8.18;;;3.33;;
35877;SDS011;21982;49.804;24.072;2023-07-20T07:16:24;7.70;;;2.97;;
35877;SDS011;21982;49.804;24.072;2023-07-20T07:18:50;8.23;;;3.22;;
35877;SDS011;21982;49.804;24.072;2023-07-20T07:21:16;10.63;;;3.67;;
35877;SDS011;21982;49.804;24.072;2023-07-20T07:23:41;4.70;;;2.80;;
35877;SDS011;21982;49.804;24.072;2023-07-20T07:26:08;9.18;;;3.90;;
35877;SDS011;21982;49.804;24.072;2023-07-20T07:28:34;9.82;;;3.85;;
35877;SDS011;21982;49.804;24.072;2023-07-20T07:30:59;10.15;;;4.65;;
35877;SDS011;21982;49.804;24.072;2023-07-20T07:33:25;14.57;;;5.80;;
35877;SDS011;21982;49.804;24.072;2023-07-20T07:35:52;11.20;;;4.50;;
35877;SDS011;21982;49.804;24.072;2023-07-20T07:38:18;7.43;;;3.65;;
35877;SDS011;21982;49.804;24.072;2023-07-20T07:40:44;10.57;;;3.85;;
35877;SDS011;21982;49.804;24.072;2023-07-20T07:43:11;7.03;;;3.67;;
35877;SDS011;21982;49.804;24.072;2023-07-20T07:45:38;8.15;;;3.60;;
35877;SDS011;21982;49.804;24.072;2023-07-20T07:48:04;7.75;;;4.03;;
35877;SDS011;21982;49.804;24.072;2023-07-20T07:50:29;9.65;;;4.10;;
35877;SDS011;21982;49.804;24.072;2023-07-20T07:52:55;11.60;;;4.38;;
35877;SDS011;21982;49.804;24.072;2023-07-20T07:55:20;15.32;;;5.25;;
35877;SDS011;21982;49.804;24.072;2023-07-20T07:57:46;13.88;;;4.78;;
35877;SDS011;21982;49.804;24.072;2023-07-20T08:00:12;12.18;;;4.20;;
35877;SDS011;21982;49.804;24.072;2023-07-20T08:02:40;9.45;;;3.95;;
35877;SDS011;21982;49.804;24.072;2023-07-20T08:05:07;16.00;;;4.47;;
35877;SDS011;21982;49.804;24.072;2023-07-20T08:07:33;9.27;;;4.07;;
35877;SDS011;21982;49.804;24.072;2023-07-20T08:09:58;12.75;;;4.25;;
35877;SDS011;21982;49.804;24.072;2023-07-20T08:12:25;10.20;;;4.30;;
35877;SDS011;21982;49.804;24.072;2023-07-20T08:14:51;10.93;;;4.32;;
35877;SDS011;21982;49.804;24.072;2023-07-20T08:17:16;9.20;;;4.50;;
35877;SDS011;21982;49.804;24.072;2023-07-20T08:19:42;11.40;;;4.35;;
35877;SDS011;21982;49.804;24.072;2023-07-20T08:22:09;8.00;;;3.83;;
35877;SDS011;21982;49.804;24.072;2023-07-20T08:24:35;15.50;;;3.97;;
35877;SDS011;21982;49.804;24.072;2023-07-20T08:27:00;12.10;;;5.53;;
35877;SDS011;21982;49.804;24.072;2023-07-20T08:29:27;13.40;;;4.70;;
35877;SDS011;21982;49.804;24.072;2023-07-20T08:31:52;9.35;;;3.47;;
35877;SDS011;21982;49.804;24.072;2023-07-20T08:34:17;13.43;;;4.55;;
35877;SDS011;21982;49.804;24.072;2023-07-20T08:36:43;10.25;;;5.15;;
35877;SDS011;21982;49.804;24.072;2023-07-20T08:39:08;12.23;;;6.07;;
35877;SDS011;21982;49.804;24.072;2023-07-20T08:41:34;10.25;;;4.78;;
35877;SDS011;21982;49.804;24.072;2023-07-20T08:44:00;10.75;;;5.03;;
35877;SDS011;21982;49.804;24.072;2023-07-20T08:46:26;9.88;;;4.88;;
35877;SDS011;21982;49.804;24.072;2023-07-20T08:48:54;10.95;;;4.93;;
35877;SDS011;21982;49.804;24.072;2023-07-20T08:51:21;9.38;;;4.95;;
35877;SDS011;21982;49.804;24.072;2023-07-20T08:53:46;11.23;;;4.53;;
35877;SDS011;21982;49.804;24.072;2023-07-20T08:56:13;14.27;;;6.60;;
35877;SDS011;21982;49.804;24.072;2023-07-20T08:58:41;17.60;;;5.47;;
35877;SDS011;21982;49.804;24.072;2023-07-20T09:01:08;10.50;;;5.20;;
35877;SDS011;21982;49.804;24.072;2023-07-20T09:03:36;14.23;;;6.13;;
35877;SDS011;21982;49.804;24.072;2023-07-20T09:06:04;9.65;;;5.55;;
35877;SDS011;21982;49.804;24.072;2023-07-20T09:08:30;14.48;;;6.35;;
35877;SDS011;21982;49.804;24.072;2023-07-20T09:10:56;13.63;;;6.20;;
35877;SDS011;21982;49.804;24.072;2023-07-20T09:13:21;14.82;;;6.00;;
35877;SDS011;21982;49.804;24.072;2023-07-20T09:15:48;10.63;;;6.07;;
35877;SDS011;21982;49.804;24.072;2023-07-20T09:18:28;10.13;;;5.15;;
35877;SDS011;21982;49.804;24.072;2023-07-20T09:20:58;11.98;;;5.85;;
35877;SDS011;21982;49.804;24.072;2023-07-20T09:23:30;11.52;;;5.70;;
35877;SDS011;21982;49.804;24.072;2023-07-20T09:28:30;13.18;;;6.03;;
35877;SDS011;21982;49.804;24.072;2023-07-20T09:31:15;10.45;;;6.07;;
35877;SDS011;21982;49.804;24.072;2023-07-20T09:33:44;10.00;;;5.53;;
35877;SDS011;21982;49.804;24.072;2023-07-20T09:36:10;10.77;;;5.13;;
35877;SDS011;21982;49.804;24.072;2023-07-20T09:38:36;11.40;;;5.03;;
35877;SDS011;21982;49.804;24.072;2023-07-20T09:41:03;9.15;;;5.22;;
35877;SDS011;21982;49.804;24.072;2023-07-20T09:43:31;9.40;;;4.60;;
35877;SDS011;21982;49.804;24.072;2023-07-20T09:45:58;9.60;;;4.97;;
35877;SDS011;21982;49.804;24.072;2023-07-20T09:48:25;11.80;;;4.38;;
35877;SDS011;21982;49.804;24.072;2023-07-20T09:50:51;10.88;;;4.60;;
35877;SDS011;21982;49.804;24.072;2023-07-20T09:53:18;8.45;;;3.88;;
35877;SDS011;21982;49.804;24.072;2023-07-20T09:55:45;10.85;;;3.80;;
35877;SDS011;21982;49.804;24.072;2023-07-20T09:58:13;9.07;;;4.30;;
35877;SDS011;21982;49.804;24.072;2023-07-20T10:00:41;9.23;;;3.63;;
35877;SDS011;21982;49.804;24.072;2023-07-20T10:03:14;9.27;;;4.63;;
35877;SDS011;21982;49.804;24.072;2023-07-20T10:05:46;13.70;;;5.50;;
35877;SDS011;21982;49.804;24.072;2023-07-20T10:08:15;15.27;;;5.63;;
35877;SDS011;21982;49.804;24.072;2023-07-20T10:10:44;10.52;;;5.38;;
35877;SDS011;21982;49.804;24.072;2023-07-20T10:13:12;16.10;;;6.28;;
35877;SDS011;21982;49.804;24.072;2023-07-20T10:15:53;18.65;;;7.72;;
35877;SDS011;21982;49.804;24.072;2023-07-20T10:18:27;26.23;;;9.20;;
35877;SDS011;21982;49.804;24.072;2023-07-20T10:20:55;22.45;;;9.00;;
35877;SDS011;21982;49.804;24.072;2023-07-20T10:23:24;24.75;;;8.25;;
35877;SDS011;21982;49.804;24.072;2023-07-20T10:25:53;19.98;;;6.55;;
35877;SDS011;21982;49.804;24.072;2023-07-20T10:28:19;17.83;;;7.65;;
35877;SDS011;21982;49.804;24.072;2023-07-20T10:30:45;17.70;;;7.03;;
35877;SDS011;21982;49.804;24.072;2023-07-20T10:33:13;11.55;;;5.63;;
35877;SDS011;21982;49.804;24.072;2023-07-20T10:35:56;14.57;;;5.47;;
35877;SDS011;21982;49.804;24.072;2023-07-20T10:41:19;9.85;;;5.78;;
35877;SDS011;21982;49.804;24.072;2023-07-20T10:43:45;13.25;;;6.30;;
35877;SDS011;21982;49.804;24.072;2023-07-20T10:46:12;13.68;;;6.80;;
35877;SDS011;21982;49.804;24.072;2023-07-20T10:51:27;11.90;;;8.10;;
35877;SDS011;21982;49.804;24.072;2023-07-20T10:53:55;15.18;;;7.38;;
35877;SDS011;21982;49.804;24.072;2023-07-20T10:56:27;13.77;;;6.75;;
35877;SDS011;21982;49.804;24.072;2023-07-20T10:58:58;12.95;;;6.05;;
35877;SDS011;21982;49.804;24.072;2023-07-20T11:01:27;25.35;;;7.03;;
35877;SDS011;21982;49.804;24.072;2023-07-20T11:03:59;37.22;;;10.35;;
35877;SDS011;21982;49.804;24.072;2023-07-20T11:11:28;25.08;;;6.95;;
35877;SDS011;21982;49.804;24.072;2023-07-20T11:13:59;24.25;;;6.70;;
35877;SDS011;21982;49.804;24.072;2023-07-20T11:16:35;15.88;;;5.75;;
35877;SDS011;21982;49.804;24.072;2023-07-20T11:19:19;14.38;;;5.13;;
35877;SDS011;21982;49.804;24.072;2023-07-20T11:21:49;18.27;;;5.03;;
35877;SDS011;21982;49.804;24.072;2023-07-20T11:24:16;12.95;;;5.00;;
35877;SDS011;21982;49.804;24.072;2023-07-20T11:29:16;12.98;;;4.88;;
35877;SDS011;21982;49.804;24.072;2023-07-20T11:31:42;8.70;;;4.18;;
35877;SDS011;21982;49.804;24.072;2023-07-20T11:34:18;10.55;;;4.38;;
35877;SDS011;21982;49.804;24.072;2023-07-20T11:36:45;9.20;;;3.42;;
35877;SDS011;21982;49.804;24.072;2023-07-20T11:39:15;7.47;;;3.47;;
35877;SDS011;21982;49.804;24.072;2023-07-20T11:41:46;6.10;;;3.67;;
35877;SDS011;21982;49.804;24.072;2023-07-20T11:44:13;7.95;;;3.70;;
35877;SDS011;21982;49.804;24.072;2023-07-20T11:46:41;6.60;;;3.25;;
35877;SDS011;21982;49.804;24.072;2023-07-20T11:49:09;9.50;;;4.10;;
35877;SDS011;21982;49.804;24.072;2023-07-20T11:51:35;6.68;;;2.88;;
35877;SDS011;21982;49.804;24.072;2023-07-20T11:54:02;7.90;;;3.42;;
35877;SDS011;21982;49.804;24.072;2023-07-20T11:56:29;6.53;;;3.25;;
35877;SDS011;21982;49.804;24.072;2023-07-20T11:58:54;5.93;;;2.92;;
35877;SDS011;21982;49.804;24.072;2023-07-20T12:03:58;5.50;;;2.50;;
35877;SDS011;21982;49.804;24.072;2023-07-20T12:08:59;4.18;;;2.05;;
35877;SDS011;21982;49.804;24.072;2023-07-20T12:11:34;4.45;;;2.42;;
35877;SDS011;21982;49.804;24.072;2023-07-20T12:14:01;6.47;;;2.40;;
35877;SDS011;21982;49.804;24.072;2023-07-20T12:16:36;6.57;;;2.65;;
35877;SDS011;21982;49.804;24.072;2023-07-20T12:19:09;6.53;;;2.45;;
35877;SDS011;21982;49.804;24.072;2023-07-20T12:21:37;4.25;;;2.28;;
35877;SDS011;21982;49.804;24.072;2023-07-20T12:24:05;6.28;;;2.63;;
35877;SDS011;21982;49.804;24.072;2023-07-20T12:26:31;4.35;;;2.22;;
35877;SDS011;21982;49.804;24.072;2023-07-20T12:28:58;5.57;;;2.55;;
35877;SDS011;21982;49.804;24.072;2023-07-20T12:31:24;6.95;;;2.85;;
35877;SDS011;21982;49.804;24.072;2023-07-20T12:33:50;5.78;;;2.85;;
35877;SDS011;21982;49.804;24.072;2023-07-20T12:36:20;5.60;;;2.78;;
35877;SDS011;21982;49.804;24.072;2023-07-20T12:38:46;5.85;;;2.67;;
35877;SDS011;21982;49.804;24.072;2023-07-20T12:41:11;5.90;;;2.80;;
35877;SDS011;21982;49.804;24.072;2023-07-20T12:43:38;6.85;;;2.60;;
35877;SDS011;21982;49.804;24.072;2023-07-20T12:46:05;6.68;;;2.92;;
35877;SDS011;21982;49.804;24.072;2023-07-20T12:48:31;5.20;;;2.85;;
35877;SDS011;21982;49.804;24.072;2023-07-20T12:50:56;5.30;;;2.28;;
35877;SDS011;21982;49.804;24.072;2023-07-20T12:53:22;8.70;;;3.28;;
35877;SDS011;21982;49.804;24.072;2023-07-20T12:55:47;5.65;;;2.63;;
35877;SDS011;21982;49.804;24.072;2023-07-20T12:58:12;5.85;;;2.70;;
35877;SDS011;21982;49.804;24.072;2023-07-20T13:00:39;8.30;;;3.03;;
35877;SDS011;21982;49.804;24.072;2023-07-20T13:03:04;7.82;;;3.42;;
35877;SDS011;21982;49.804;24.072;2023-07-20T13:05:30;8.02;;;2.90;;
35877;SDS011;21982;49.804;24.072;2023-07-20T13:07:57;5.47;;;2.50;;
35877;SDS011;21982;49.804;24.072;2023-07-20T13:10:25;5.32;;;2.95;;
35877;SDS011;21982;49.804;24.072;2023-07-20T13:12:53;14.20;;;3.53;;
35877;SDS011;21982;49.804;24.072;2023-07-20T13:15:20;7.82;;;3.53;;
35877;SDS011;21982;49.804;24.072;2023-07-20T13:17:45;11.90;;;3.72;;
35877;SDS011;21982;49.804;24.072;2023-07-20T13:20:11;6.70;;;3.05;;
35877;SDS011;21982;49.804;24.072;2023-07-20T13:22:37;9.95;;;3.35;;
35877;SDS011;21982;49.804;24.072;2023-07-20T13:25:03;5.60;;;2.90;;
35877;SDS011;21982;49.804;24.072;2023-07-20T13:27:29;8.65;;;3.70;;
35877;SDS011;21982;49.804;24.072;2023-07-20T13:29:55;17.90;;;5.00;;
35877;SDS011;21982;49.804;24.072;2023-07-20T13:32:21;6.53;;;3.13;;
35877;SDS011;21982;49.804;24.072;2023-07-20T13:34:47;6.10;;;2.90;;
35877;SDS011;21982;49.804;24.072;2023-07-20T13:37:13;8.02;;;3.13;;
35877;SDS011;21982;49.804;24.072;2023-07-20T13:39:39;7.07;;;2.85;;
35877;SDS011;21982;49.804;24.072;2023-07-20T13:42:05;7.38;;;3.38;;
35877;SDS011;21982;49.804;24.072;2023-07-20T13:44:31;7.38;;;2.75;;
35877;SDS011;21982;49.804;24.072;2023-07-20T13:46:57;8.10;;;2.35;;
35877;SDS011;21982;49.804;24.072;2023-07-20T13:49:22;5.75;;;2.78;;
35877;SDS011;21982;49.804;24.072;2023-07-20T13:51:48;9.02;;;2.90;;
35877;SDS011;21982;49.804;24.072;2023-07-20T13:54:13;5.13;;;3.00;;
35877;SDS011;21982;49.804;24.072;2023-07-20T13:56:39;5.78;;;3.40;;
35877;SDS011;21982;49.804;24.072;2023-07-20T13:59:04;10.63;;;3.30;;
35877;SDS011;21982;49.804;24.072;2023-07-20T14:01:31;9.30;;;3.80;;
35877;SDS011;21982;49.804;24.072;2023-07-20T14:03:59;9.13;;;4.45;;
35877;SDS011;21982;49.804;24.072;2023-07-20T14:06:29;7.63;;;3.92;;
35877;SDS011;21982;49.804;24.072;2023-07-20T14:08:56;8.88;;;3.63;;
35877;SDS011;21982;49.804;24.072;2023-07-20T14:11:21;5.47;;;3.40;;
35877;SDS011;21982;49.804;24.072;2023-07-20T14:13:48;9.60;;;3.20;;
35877;SDS011;21982;49.804;24.072;2023-07-20T14:16:14;8.65;;;3.30;;
35877;SDS011;21982;49.804;24.072;2023-07-20T14:18:40;10.63;;;3.50;;
35877;SDS011;21982;49.804;24.072;2023-07-20T14:21:05;5.30;;;2.80;;
35877;SDS011;21982;49.804;24.072;2023-07-20T14:23:31;6.30;;;2.67;;
35877;SDS011;21982;49.804;24.072;2023-07-20T14:25:57;5.25;;;2.70;;
35877;SDS011;21982;49.804;24.072;2023-07-20T14:28:22;6.15;;;2.63;;
35877;SDS011;21982;49.804;24.072;2023-07-20T14:30:48;5.55;;;3.15;;
35877;SDS011;21982;49.804;24.072;2023-07-20T14:33:13;4.55;;;2.20;;
35877;SDS011;21982;49.804;24.072;2023-07-20T14:35:39;5.57;;;2.50;;
35877;SDS011;21982;49.804;24.072;2023-07-20T14:38:04;4.50;;;2.17;;
35877;SDS011;21982;49.804;24.072;2023-07-20T14:40:30;3.75;;;2.25;;
35877;SDS011;21982;49.804;24.072;2023-07-20T14:42:55;3.17;;;2.10;;
35877;SDS011;21982;49.804;24.072;2023-07-20T14:45:21;3.58;;;1.77;;
35877;SDS011;21982;49.804;24.072;2023-07-20T14:47:46;4.07;;;1.70;;
35877;SDS011;21982;49.804;24.072;2023-07-20T14:50:18;4.38;;;2.40;;
35877;SDS011;21982;49.804;24.072;2023-07-20T14:52:44;4.72;;;1.92;;
35877;SDS011;21982;49.804;24.072;2023-07-20T14:55:09;3.97;;;2.00;;
35877;SDS011;21982;49.804;24.072;2023-07-20T14:57:34;4.68;;;2.35;;
35877;SDS011;21982;49.804;24.072;2023-07-20T15:00:00;6.70;;;2.28;;
35877;SDS011;21982;49.804;24.072;2023-07-20T15:02:25;5.95;;;2.10;;
35877;SDS011;21982;49.804;24.072;2023-07-20T15:04:51;4.47;;;2.40;;
35877;SDS011;21982;49.804;24.072;2023-07-20T15:07:20;5.95;;;2.50;;